createdAt,value
2017-11-27T00:01:24.889Z,21.33
2017-11-27T00:07:28.394Z,23.97
2017-11-27T00:13:31.873Z,18.23
2017-11-27T00:19:35.466Z,15.27
2017-11-27T00:25:38.986Z,16.17
2017-11-27T00:31:42.457Z,22.93
2017-11-27T00:37:45.954Z,20.87
2017-11-27T00:43:49.455Z,25.17
2017-11-27T00:49:53.757Z,17.97
2017-11-27T00:55:57.263Z,26.20
2017-11-27T01:02:00.724Z,25.10
2017-11-27T01:08:04.241Z,20.30
2017-11-27T01:14:07.747Z,20.57
2017-11-27T01:20:11.236Z,22.00
2017-11-27T01:26:14.745Z,19.97
2017-11-27T01:32:18.228Z,22.17
2017-11-27T01:38:21.713Z,22.60
2017-11-27T01:44:25.286Z,23.63
2017-11-27T01:50:29.592Z,17.83
2017-11-27T01:56:33.090Z,17.20
2017-11-27T02:02:36.581Z,16.10
2017-11-27T02:08:40.113Z,17.03
2017-11-27T02:14:43.651Z,16.83
2017-11-27T02:20:47.149Z,17.07
2017-11-27T02:26:50.725Z,14.70
2017-11-27T02:32:54.206Z,14.87
2017-11-27T02:38:57.685Z,17.13
2017-11-27T02:45:01.329Z,18.63
2017-11-27T02:51:05.615Z,16.50
2017-11-27T02:57:09.288Z,19.60
2017-11-27T03:03:13.563Z,19.13
2017-11-27T03:09:19.703Z,18.40
2017-11-27T03:15:23.174Z,17.67
2017-11-27T03:21:26.679Z,14.10
2017-11-27T03:27:30.189Z,27.43
2017-11-27T03:33:33.720Z,14.57
2017-11-27T03:39:37.194Z,13.67
2017-11-27T03:45:40.671Z,13.93
2017-11-27T03:51:44.162Z,14.27
2017-11-27T03:57:48.408Z,17.67
2017-11-27T04:03:52.686Z,13.80
2017-11-27T04:09:56.179Z,15.07
2017-11-27T04:15:59.634Z,13.57
2017-11-27T04:22:03.219Z,12.70
2017-11-27T04:28:06.715Z,13.87
2017-11-27T04:34:10.974Z,13.80
2017-11-27T04:40:14.466Z,13.53
2017-11-27T04:46:17.938Z,11.37
2017-11-27T04:52:21.427Z,8.57
2017-11-27T04:58:24.935Z,9.30
2017-11-27T05:04:28.422Z,10.47
2017-11-27T05:10:32.005Z,10.47
2017-11-27T05:16:35.499Z,9.70
2017-11-27T05:22:39.781Z,9.07
2017-11-27T05:28:43.295Z,10.97
2017-11-27T05:34:46.799Z,7.60
2017-11-27T05:40:50.279Z,9.63
2017-11-27T05:46:53.794Z,16.73
2017-11-27T05:52:57.410Z,7.80
2017-11-27T05:59:01.732Z,16.47
2017-11-27T06:05:05.239Z,28.37
2017-11-27T06:11:08.785Z,6.33
2017-11-27T06:17:12.241Z,8.43
2017-11-27T06:23:15.742Z,8.13
2017-11-27T06:29:19.227Z,7.63
2017-11-27T06:35:22.759Z,9.20
2017-11-27T06:41:26.229Z,7.67
2017-11-27T06:47:30.483Z,8.30
2017-11-27T06:53:34.727Z,7.80
2017-11-27T06:59:38.298Z,7.50
2017-11-27T07:05:41.770Z,6.10
2017-11-27T07:11:46.046Z,9.77
2017-11-27T07:17:49.543Z,11.77
2017-11-27T07:23:53.116Z,10.47
2017-11-27T07:29:56.622Z,10.13
2017-11-27T07:36:00.118Z,8.63
2017-11-27T07:42:03.602Z,10.80
2017-11-27T07:48:07.096Z,7.73
2017-11-27T07:54:10.575Z,9.03
2017-11-27T08:00:14.065Z,12.37
2017-11-27T08:06:17.597Z,6.77
2017-11-27T08:12:21.860Z,9.13
2017-11-27T08:18:25.343Z,7.40
2017-11-27T08:24:29.626Z,6.17
2017-11-27T08:30:33.120Z,6.77
2017-11-27T08:36:36.688Z,12.37
2017-11-27T08:42:40.169Z,5.80
2017-11-27T08:48:43.694Z,9.97
2017-11-27T08:54:47.784Z,13.53
2017-11-27T09:00:51.256Z,7.50
2017-11-27T09:06:54.724Z,10.83
2017-11-27T09:12:58.185Z,5.00
2017-11-27T09:19:01.665Z,12.83
2017-11-27T09:25:05.154Z,7.17
2017-11-27T09:31:08.650Z,25.83
2017-11-27T09:37:12.132Z,10.93
2017-11-27T09:43:15.595Z,8.03
2017-11-27T09:49:19.882Z,6.23
2017-11-27T09:55:23.406Z,7.70
2017-11-27T10:01:26.880Z,8.77
2017-11-27T10:07:30.368Z,4.90
2017-11-27T10:13:34.756Z,7.77
2017-11-27T10:19:38.319Z,11.63
2017-11-27T10:25:42.597Z,8.77
2017-11-27T10:31:46.118Z,24.30
2017-11-27T10:37:49.564Z,8.03
2017-11-27T10:43:53.053Z,10.43
2017-11-27T10:49:56.802Z,4.07
2017-11-27T10:56:00.250Z,12.53
2017-11-27T11:02:03.733Z,4.40
2017-11-27T11:08:08.011Z,7.87
2017-11-27T11:14:11.528Z,6.43
2017-11-27T11:20:15.164Z,7.40
2017-11-27T11:26:18.618Z,5.30
2017-11-27T11:32:22.158Z,11.33
2017-11-27T11:38:26.617Z,6.13
2017-11-27T11:44:30.120Z,4.30
2017-11-27T11:50:33.617Z,10.73
2017-11-27T11:56:37.856Z,8.40
2017-11-27T12:02:42.116Z,5.10
2017-11-27T12:08:45.595Z,3.87
2017-11-27T12:14:49.107Z,4.57
2017-11-27T12:20:52.573Z,10.10
2017-11-27T12:26:56.044Z,6.43
2017-11-27T12:32:59.537Z,3.03
2017-11-27T12:39:03.822Z,1.97
2017-11-27T12:45:08.181Z,3.20
2017-11-27T12:51:12.475Z,4.00
2017-11-27T12:57:15.939Z,4.17
2017-11-27T13:03:20.200Z,3.73
2017-11-27T13:09:24.114Z,3.30
2017-11-27T13:15:28.378Z,3.90
2017-11-27T13:21:31.832Z,4.63
2017-11-27T13:27:35.321Z,8.43
2017-11-27T13:33:38.800Z,2.53
2017-11-27T13:39:43.033Z,3.13
2017-11-27T13:45:46.622Z,2.40
2017-11-27T13:51:50.098Z,3.83
2017-11-27T13:57:53.576Z,2.50
2017-11-27T14:03:57.038Z,2.27
2017-11-27T14:10:00.541Z,9.87
2017-11-27T14:16:04.814Z,2.60
2017-11-27T14:22:08.551Z,3.20
2017-11-27T14:28:12.900Z,2.50
2017-11-27T14:34:17.302Z,2.90
2017-11-27T14:40:21.594Z,3.67
2017-11-27T14:46:25.042Z,2.57
2017-11-27T14:52:29.391Z,2.37
2017-11-27T14:58:33.602Z,2.83
2017-11-27T15:04:37.353Z,27.43
2017-11-27T15:10:41.628Z,6.97
2017-11-27T15:16:45.651Z,29.60
2017-11-27T15:28:29.515Z,9.02
2017-11-27T15:34:33.069Z,2.60
2017-11-27T15:40:36.575Z,3.67
2017-11-27T15:46:40.057Z,3.77
2017-11-27T15:52:43.555Z,2.30
2017-11-27T15:58:47.823Z,7.50
2017-11-27T16:04:52.815Z,2.83
2017-11-27T16:10:57.118Z,2.00
2017-11-27T16:17:00.666Z,3.87
2017-11-27T16:23:04.267Z,2.40
2017-11-27T16:29:07.755Z,3.00
2017-11-27T16:35:12.013Z,7.83
2017-11-27T16:41:15.550Z,2.57
2017-11-27T16:47:19.061Z,5.90
2017-11-27T16:53:22.739Z,6.47
2017-11-27T16:59:26.305Z,7.47
2017-11-27T17:05:29.808Z,1.90
2017-11-27T17:11:34.124Z,4.00
2017-11-27T17:17:37.621Z,2.73
2017-11-27T17:23:41.870Z,4.20
2017-11-27T17:29:45.348Z,2.20
2017-11-27T17:35:49.611Z,2.10
2017-11-27T17:41:53.323Z,6.50
2017-11-27T17:47:56.833Z,2.70
2017-11-27T17:54:00.401Z,2.97
2017-11-27T18:00:04.747Z,15.90
2017-11-27T18:06:08.271Z,3.10
2017-11-27T18:12:12.021Z,2.47
2017-11-27T18:18:15.516Z,1.80
2017-11-27T18:24:19.063Z,3.40
2017-11-27T18:30:23.249Z,2.60
2017-11-27T18:36:26.800Z,1.73
2017-11-27T18:42:30.422Z,3.93
2017-11-27T18:48:33.941Z,4.40
2017-11-27T18:54:38.277Z,2.60
2017-11-27T19:00:42.058Z,8.70
2017-11-27T19:06:46.311Z,6.70
2017-11-27T19:12:49.886Z,12.77
2017-11-27T19:18:53.779Z,3.27
2017-11-27T19:24:57.293Z,7.90
2017-11-27T19:31:00.822Z,2.57
2017-11-27T19:37:04.405Z,3.00
2017-11-27T19:43:07.897Z,2.63
2017-11-27T19:49:11.418Z,2.30
2017-11-27T19:55:14.938Z,5.10
2017-11-27T20:01:18.515Z,4.63
2017-11-27T20:07:22.392Z,2.60
2017-11-27T20:13:26.300Z,2.60
2017-11-27T20:19:29.826Z,2.70
2017-11-27T20:25:34.282Z,14.57
2017-11-27T20:31:37.778Z,4.30
2017-11-27T20:37:41.348Z,3.17
2017-11-27T20:43:45.508Z,2.53
2017-11-27T20:49:48.984Z,3.30
2017-11-27T20:55:53.662Z,3.27
2017-11-27T21:01:58.025Z,2.93
2017-11-27T21:08:01.531Z,3.30
2017-11-27T21:14:05.187Z,1.40
2017-11-27T21:20:08.676Z,2.10
2017-11-27T21:26:12.224Z,1.70
2017-11-27T21:32:15.797Z,1.93
2017-11-27T21:38:19.393Z,2.37
2017-11-27T21:44:23.120Z,4.70
2017-11-27T21:50:26.865Z,2.47
2017-11-27T21:56:30.382Z,2.33
2017-11-27T22:02:33.884Z,2.60
2017-11-27T22:08:37.427Z,2.23
2017-11-27T22:14:40.947Z,9.07
2017-11-27T22:20:45.987Z,3.03
2017-11-27T22:26:49.518Z,4.50
2017-11-27T22:32:53.286Z,5.47
2017-11-27T22:38:56.931Z,3.87
2017-11-27T22:45:00.544Z,2.30
2017-11-27T22:51:04.030Z,3.07
2017-11-27T22:57:07.529Z,3.50
2017-11-27T23:03:11.010Z,2.53
2017-11-27T23:09:14.537Z,2.33
2017-11-27T23:15:18.016Z,2.53
2017-11-27T23:21:21.890Z,3.03
2017-11-27T23:27:25.746Z,3.53
2017-11-27T23:33:29.340Z,2.80
2017-11-27T23:39:32.849Z,3.03
2017-11-27T23:45:36.354Z,3.73
2017-11-27T23:51:40.009Z,2.53
2017-11-27T23:57:43.561Z,2.50
